sensor_id;sensor_type;location;lat;lon;timestamp;temperature;humidity
40816;DHT22;26535;48.788;9.214;2023-02-03T00:00:33;6.80;99.90
40816;DHT22;26535;48.788;9.214;2023-02-03T00:02:59;6.80;99.90
40816;DHT22;26535;48.788;9.214;2023-02-03T00:05:25;6.70;99.90
40816;DHT22;26535;48.788;9.214;2023-02-03T00:07:51;6.70;99.90
40816;DHT22;26535;48.788;9.214;2023-02-03T00:10:17;6.80;99.90
40816;DHT22;26535;48.788;9.214;2023-02-03T00:12:50;6.70;99.90
40816;DHT22;26535;48.788;9.214;2023-02-03T00:15:21;6.70;99.90
40816;DHT22;26535;48.788;9.214;2023-02-03T00:17:48;6.70;99.90
40816;DHT22;26535;48.788;9.214;2023-02-03T00:20:14;6.70;99.90
40816;DHT22;26535;48.788;9.214;2023-02-03T00:22:39;6.70;99.90
40816;DHT22;26535;48.788;9.214;2023-02-03T00:25:05;6.60;99.90
40816;DHT22;26535;48.788;9.214;2023-02-03T00:27:32;6.60;99.90
40816;DHT22;26535;48.788;9.214;2023-02-03T00:29:58;6.60;99.90
40816;DHT22;26535;48.788;9.214;2023-02-03T06:02:02;6.00;99.90
40816;DHT22;26535;48.788;9.214;2023-02-03T06:04:28;6.10;99.90
40816;DHT22;26535;48.788;9.214;2023-02-03T06:06:57;6.10;99.90
40816;DHT22;26535;48.788;9.214;2023-02-03T06:09:29;6.10;99.90
40816;DHT22;26535;48.788;9.214;2023-02-03T06:12:04;6.20;99.90
40816;DHT22;26535;48.788;9.214;2023-02-03T06:14:45;6.20;99.90
40816;DHT22;26535;48.788;9.214;2023-02-03T06:17:13;6.20;99.90
40816;DHT22;26535;48.788;9.214;2023-02-03T06:19:42;6.20;99.90
40816;DHT22;26535;48.788;9.214;2023-02-03T06:22:08;6.20;99.90
40816;DHT22;26535;48.788;9.214;2023-02-03T06:24:40;6.30;99.90
40816;DHT22;26535;48.788;9.214;2023-02-03T06:27:05;6.30;99.90
40816;DHT22;26535;48.788;9.214;2023-02-03T06:29:34;6.30;99.90
40816;DHT22;26535;48.788;9.214;2023-02-03T06:32:09;6.30;99.90
40816;DHT22;26535;48.788;9.214;2023-02-03T06:34:48;6.30;99.90
40816;DHT22;26535;48.788;9.214;2023-02-03T06:37:21;6.30;99.90
40816;DHT22;26535;48.788;9.214;2023-02-03T06:39:46;6.30;99.90
40816;DHT22;26535;48.788;9.214;2023-02-03T06:42:27;6.30;99.90
40816;DHT22;26535;48.788;9.214;2023-02-03T06:44:53;6.40;99.90
40816;DHT22;26535;48.788;9.214;2023-02-03T06:47:50;6.40;99.90
40816;DHT22;26535;48.788;9.214;2023-02-03T06:50:20;6.50;99.90
40816;DHT22;26535;48.788;9.214;2023-02-03T06:52:51;6.40;99.90
40816;DHT22;26535;48.788;9.214;2023-02-03T06:55:28;6.40;99.90
40816;DHT22;26535;48.788;9.214;2023-02-03T06:58:07;6.40;99.90
40816;DHT22;26535;48.788;9.214;2023-02-03T07:00:35;6.30;99.90
40816;DHT22;26535;48.788;9.214;2023-02-03T07:03:01;6.30;99.90
40816;DHT22;26535;48.788;9.214;2023-02-03T07:05:58;6.30;99.90
40816;DHT22;26535;48.788;9.214;2023-02-03T07:08:49;6.30;99.90
40816;DHT22;26535;48.788;9.214;2023-02-03T07:11:46;6.30;99.90
40816;DHT22;26535;48.788;9.214;2023-02-03T07:14:19;6.20;99.90
40816;DHT22;26535;48.788;9.214;2023-02-03T07:16:46;6.10;99.90
40816;DHT22;26535;48.788;9.214;2023-02-03T07:19:40;6.20;99.90
40816;DHT22;26535;48.788;9.214;2023-02-03T07:22:34;6.20;99.90
40816;DHT22;26535;48.788;9.214;2023-02-03T07:25:15;6.10;99.90
40816;DHT22;26535;48.788;9.214;2023-02-03T07:27:43;6.10;99.90
40816;DHT22;26535;48.788;9.214;2023-02-03T07:30:33;6.10;99.90
40816;DHT22;26535;48.788;9.214;2023-02-03T07:33:20;6.10;99.90
40816;DHT22;26535;48.788;9.214;2023-02-03T07:39:50;6.10;99.90
40816;DHT22;26535;48.788;9.214;2023-02-03T07:42:25;6.20;99.90
40816;DHT22;26535;48.788;9.214;2023-02-03T07:45:00;6.20;99.90
40816;DHT22;26535;48.788;9.214;2023-02-03T07:50:50;6.20;99.90
40816;DHT22;26535;48.788;9.214;2023-02-03T07:53:36;6.10;99.90
40816;DHT22;26535;48.788;9.214;2023-02-03T07:56:08;6.20;99.90
40816;DHT22;26535;48.788;9.214;2023-02-03T07:58:39;6.20;99.90
40816;DHT22;26535;48.788;9.214;2023-02-03T08:01:27;6.20;99.90
40816;DHT22;26535;48.788;9.214;2023-02-03T08:04:06;6.20;99.90
40816;DHT22;26535;48.788;9.214;2023-02-03T08:10:03;6.20;99.90
40816;DHT22;26535;48.788;9.214;2023-02-03T08:12:35;6.20;99.90
40816;DHT22;26535;48.788;9.214;2023-02-03T08:15:37;6.40;99.90
40816;DHT22;26535;48.788;9.214;2023-02-03T08:22:36;6.40;99.90
40816;DHT22;26535;48.788;9.214;2023-02-03T08:28:25;6.50;99.90
40816;DHT22;26535;48.788;9.214;2023-02-03T08:30:54;6.40;99.90
40816;DHT22;26535;48.788;9.214;2023-02-03T08:33:22;6.40;99.90
40816;DHT22;26535;48.788;9.214;2023-02-03T08:38:58;6.40;99.90
40816;DHT22;26535;48.788;9.214;2023-02-03T08:41:24;6.40;99.90
40816;DHT22;26535;48.788;9.214;2023-02-03T08:48:09;6.40;99.90
40816;DHT22;26535;48.788;9.214;2023-02-03T08:58:22;6.70;99.90
40816;DHT22;26535;48.788;9.214;2023-02-03T09:01:12;6.80;99.90
40816;DHT22;26535;48.788;9.214;2023-02-03T09:04:09;6.70;99.90
40816;DHT22;26535;48.788;9.214;2023-02-03T09:06:35;6.70;99.90
40816;DHT22;26535;48.788;9.214;2023-02-03T09:09:14;6.80;99.90
40816;DHT22;26535;48.788;9.214;2023-02-03T09:11:41;6.90;99.90
40816;DHT22;26535;48.788;9.214;2023-02-03T09:14:07;7.00;99.90
40816;DHT22;26535;48.788;9.214;2023-02-03T09:16:53;7.00;99.90
40816;DHT22;26535;48.788;9.214;2023-02-03T09:19:19;7.10;99.90
40816;DHT22;26535;48.788;9.214;2023-02-03T09:22:06;7.10;99.90
40816;DHT22;26535;48.788;9.214;2023-02-03T09:24:35;7.30;99.90
40816;DHT22;26535;48.788;9.214;2023-02-03T09:27:04;7.30;99.90
40816;DHT22;26535;48.788;9.214;2023-02-03T09:29:41;7.20;99.90
40816;DHT22;26535;48.788;9.214;2023-02-03T09:32:13;7.30;99.90
40816;DHT22;26535;48.788;9.214;2023-02-03T09:34:47;7.60;99.90
40816;DHT22;26535;48.788;9.214;2023-02-03T09:37:14;7.90;99.90
40816;DHT22;26535;48.788;9.214;2023-02-03T09:40:25;8.00;99.90
40816;DHT22;26535;48.788;9.214;2023-02-03T09:45:41;7.90;99.90
40816;DHT22;26535;48.788;9.214;2023-02-03T09:48:31;7.90;99.90
40816;DHT22;26535;48.788;9.214;2023-02-03T09:52:00;8.00;99.90
40816;DHT22;26535;48.788;9.214;2023-02-03T09:55:44;8.00;99.90
40816;DHT22;26535;48.788;9.214;2023-02-03T10:18:50;8.40;99.90
40816;DHT22;26535;48.788;9.214;2023-02-03T10:22:03;8.50;99.90
40816;DHT22;26535;48.788;9.214;2023-02-03T10:24:52;8.70;99.90
40816;DHT22;26535;48.788;9.214;2023-02-03T10:34:27;8.80;99.90
40816;DHT22;26535;48.788;9.214;2023-02-03T10:37:25;8.80;99.90
40816;DHT22;26535;48.788;9.214;2023-02-03T10:40:42;8.90;99.90
40816;DHT22;26535;48.788;9.214;2023-02-03T10:43:14;8.80;99.90
40816;DHT22;26535;48.788;9.214;2023-02-03T10:46:04;8.80;99.90
40816;DHT22;26535;48.788;9.214;2023-02-03T10:48:29;8.70;99.90
40816;DHT22;26535;48.788;9.214;2023-02-03T10:51:27;8.80;99.90
40816;DHT22;26535;48.788;9.214;2023-02-03T10:54:26;8.90;99.90
40816;DHT22;26535;48.788;9.214;2023-02-03T10:56:52;9.20;99.90
40816;DHT22;26535;48.788;9.214;2023-02-03T11:00:02;9.40;99.90
40816;DHT22;26535;48.788;9.214;2023-02-03T11:02:41;9.90;99.90
40816;DHT22;26535;48.788;9.214;2023-02-03T11:07:55;10.50;99.90
40816;DHT22;26535;48.788;9.214;2023-02-03T11:10:38;10.30;99.90
40816;DHT22;26535;48.788;9.214;2023-02-03T11:13:28;10.00;99.90
40816;DHT22;26535;48.788;9.214;2023-02-03T11:21:44;9.20;99.90
40816;DHT22;26535;48.788;9.214;2023-02-03T11:24:36;9.10;99.90
40816;DHT22;26535;48.788;9.214;2023-02-03T11:27:08;8.90;99.90
40816;DHT22;26535;48.788;9.214;2023-02-03T11:32:35;8.90;99.90
40816;DHT22;26535;48.788;9.214;2023-02-03T11:35:23;9.00;99.90
40816;DHT22;26535;48.788;9.214;2023-02-03T11:37:55;9.30;99.90
40816;DHT22;26535;48.788;9.214;2023-02-03T11:40:31;9.40;99.90
40816;DHT22;26535;48.788;9.214;2023-02-03T11:43:17;9.50;99.90
40816;DHT22;26535;48.788;9.214;2023-02-03T11:45:47;9.60;99.90
40816;DHT22;26535;48.788;9.214;2023-02-03T11:48:36;9.60;99.90
40816;DHT22;26535;48.788;9.214;2023-02-03T11:51:43;9.40;99.90
40816;DHT22;26535;48.788;9.214;2023-02-03T11:54:31;9.40;99.90
40816;DHT22;26535;48.788;9.214;2023-02-03T12:07:05;9.60;99.90
40816;DHT22;26535;48.788;9.214;2023-02-03T12:12:38;9.60;99.90
40816;DHT22;26535;48.788;9.214;2023-02-03T12:21:32;9.50;99.90
40816;DHT22;26535;48.788;9.214;2023-02-03T12:25:16;9.50;99.90
40816;DHT22;26535;48.788;9.214;2023-02-03T12:34:13;9.60;99.90
40816;DHT22;26535;48.788;9.214;2023-02-03T12:37:04;9.50;99.90
40816;DHT22;26535;48.788;9.214;2023-02-03T12:39:50;9.50;99.90
40816;DHT22;26535;48.788;9.214;2023-02-03T12:47:49;9.30;99.90
40816;DHT22;26535;48.788;9.214;2023-02-03T12:50:20;9.20;99.90
40816;DHT22;26535;48.788;9.214;2023-02-03T12:53:00;9.30;99.90
40816;DHT22;26535;48.788;9.214;2023-02-03T12:55:35;9.30;99.90
40816;DHT22;26535;48.788;9.214;2023-02-03T12:58:08;9.20;99.90
40816;DHT22;26535;48.788;9.214;2023-02-03T13:18:11;9.10;99.90
40816;DHT22;26535;48.788;9.214;2023-02-03T13:20:51;9.20;99.90
40816;DHT22;26535;48.788;9.214;2023-02-03T13:23:24;9.20;99.90
40816;DHT22;26535;48.788;9.214;2023-02-03T13:29:04;9.10;99.90
40816;DHT22;26535;48.788;9.214;2023-02-03T13:40:09;9.00;99.90
40816;DHT22;26535;48.788;9.214;2023-02-03T13:43:10;9.00;99.90
40816;DHT22;26535;48.788;9.214;2023-02-03T13:45:42;9.00;99.90
40816;DHT22;26535;48.788;9.214;2023-02-03T13:48:19;9.10;99.90
40816;DHT22;26535;48.788;9.214;2023-02-03T13:50:48;9.10;99.90
40816;DHT22;26535;48.788;9.214;2023-02-03T13:53:37;9.10;99.90
40816;DHT22;26535;48.788;9.214;2023-02-03T13:56:06;9.00;99.90
40816;DHT22;26535;48.788;9.214;2023-02-03T13:58:34;9.10;99.90
40816;DHT22;26535;48.788;9.214;2023-02-03T14:01:25;9.00;99.90
40816;DHT22;26535;48.788;9.214;2023-02-03T14:03:56;9.00;99.90
40816;DHT22;26535;48.788;9.214;2023-02-03T14:12:30;9.00;99.90
40816;DHT22;26535;48.788;9.214;2023-02-03T14:25:31;9.00;99.90
40816;DHT22;26535;48.788;9.214;2023-02-03T14:31:15;9.00;99.90
40816;DHT22;26535;48.788;9.214;2023-02-03T14:36:35;9.00;99.90
40816;DHT22;26535;48.788;9.214;2023-02-03T14:39:25;9.00;99.90
40816;DHT22;26535;48.788;9.214;2023-02-03T14:42:16;9.00;99.90
40816;DHT22;26535;48.788;9.214;2023-02-03T14:59:17;8.90;99.90
40816;DHT22;26535;48.788;9.214;2023-02-03T15:04:44;8.80;99.90
40816;DHT22;26535;48.788;9.214;2023-02-03T15:07:36;8.90;99.90
40816;DHT22;26535;48.788;9.214;2023-02-03T15:10:10;8.80;99.90
40816;DHT22;26535;48.788;9.214;2023-02-03T15:12:36;8.70;99.90
40816;DHT22;26535;48.788;9.214;2023-02-03T15:15:22;8.70;99.90
40816;DHT22;26535;48.788;9.214;2023-02-03T15:17:53;8.70;99.90
40816;DHT22;26535;48.788;9.214;2023-02-03T15:20:33;8.70;99.90
40816;DHT22;26535;48.788;9.214;2023-02-03T15:23:40;8.70;99.90
40816;DHT22;26535;48.788;9.214;2023-02-03T15:26:23;8.70;99.90
40816;DHT22;26535;48.788;9.214;2023-02-03T15:29:03;8.60;99.90
40816;DHT22;26535;48.788;9.214;2023-02-03T15:31:34;8.70;99.90
40816;DHT22;26535;48.788;9.214;2023-02-03T15:36:49;8.60;99.90
40816;DHT22;26535;48.788;9.214;2023-02-03T15:42:00;8.60;99.90
40816;DHT22;26535;48.788;9.214;2023-02-03T15:44:44;8.50;99.90
40816;DHT22;26535;48.788;9.214;2023-02-03T15:47:34;8.50;99.90
40816;DHT22;26535;48.788;9.214;2023-02-03T15:50:35;8.50;99.90
40816;DHT22;26535;48.788;9.214;2023-02-03T15:58:52;8.50;99.90
40816;DHT22;26535;48.788;9.214;2023-02-03T16:01:30;8.50;99.90
40816;DHT22;26535;48.788;9.214;2023-02-03T16:04:04;8.50;99.90
40816;DHT22;26535;48.788;9.214;2023-02-03T16:06:34;8.50;99.90
40816;DHT22;26535;48.788;9.214;2023-02-03T16:09:05;8.50;99.90
40816;DHT22;26535;48.788;9.214;2023-02-03T16:11:39;8.50;99.90
40816;DHT22;26535;48.788;9.214;2023-02-03T16:14:39;8.50;99.90
40816;DHT22;26535;48.788;9.214;2023-02-03T16:17:56;8.40;99.90
40816;DHT22;26535;48.788;9.214;2023-02-03T16:34:24;8.20;99.90
40816;DHT22;26535;48.788;9.214;2023-02-03T16:43:44;8.10;99.90
40816;DHT22;26535;48.788;9.214;2023-02-03T16:47:07;8.10;99.90
40816;DHT22;26535;48.788;9.214;2023-02-03T16:49:58;8.10;99.90
40816;DHT22;26535;48.788;9.214;2023-02-03T16:52:43;8.10;99.90
40816;DHT22;26535;48.788;9.214;2023-02-03T16:55:11;8.10;99.90
40816;DHT22;26535;48.788;9.214;2023-02-03T16:57:37;8.10;99.90
40816;DHT22;26535;48.788;9.214;2023-02-03T17:00:06;8.10;99.90
40816;DHT22;26535;48.788;9.214;2023-02-03T17:02:34;8.10;99.90
40816;DHT22;26535;48.788;9.214;2023-02-03T17:05:03;8.10;99.90
40816;DHT22;26535;48.788;9.214;2023-02-03T17:07:29;8.10;99.90
40816;DHT22;26535;48.788;9.214;2023-02-03T17:09:55;8.10;99.90
40816;DHT22;26535;48.788;9.214;2023-02-03T17:12:20;8.10;99.90
40816;DHT22;26535;48.788;9.214;2023-02-03T17:14:48;8.10;99.90
40816;DHT22;26535;48.788;9.214;2023-02-03T17:17:14;8.00;99.90
40816;DHT22;26535;48.788;9.214;2023-02-03T17:19:39;8.00;99.90
40816;DHT22;26535;48.788;9.214;2023-02-03T17:22:05;8.00;99.90
40816;DHT22;26535;48.788;9.214;2023-02-03T17:24:32;8.00;99.90
40816;DHT22;26535;48.788;9.214;2023-02-03T17:27:06;8.00;99.90
40816;DHT22;26535;48.788;9.214;2023-02-03T17:29:32;8.10;99.90
40816;DHT22;26535;48.788;9.214;2023-02-03T17:31:58;8.10;99.90
40816;DHT22;26535;48.788;9.214;2023-02-03T17:34:23;8.10;99.90
40816;DHT22;26535;48.788;9.214;2023-02-03T17:36:49;8.10;99.90
40816;DHT22;26535;48.788;9.214;2023-02-03T17:39:15;8.20;99.90
40816;DHT22;26535;48.788;9.214;2023-02-03T17:41:41;8.20;99.90
40816;DHT22;26535;48.788;9.214;2023-02-03T17:44:07;8.20;99.90
40816;DHT22;26535;48.788;9.214;2023-02-03T17:46:33;8.20;99.90
40816;DHT22;26535;48.788;9.214;2023-02-03T17:48:59;8.20;99.90
40816;DHT22;26535;48.788;9.214;2023-02-03T17:51:26;8.30;99.90
40816;DHT22;26535;48.788;9.214;2023-02-03T17:53:57;8.30;99.90
40816;DHT22;26535;48.788;9.214;2023-02-03T17:56:29;8.30;99.90
40816;DHT22;26535;48.788;9.214;2023-02-03T17:58:56;8.40;99.90
40816;DHT22;26535;48.788;9.214;2023-02-03T18:01:22;8.40;99.90
40816;DHT22;26535;48.788;9.214;2023-02-03T18:03:57;8.40;99.90
40816;DHT22;26535;48.788;9.214;2023-02-03T18:06:25;8.40;99.90
40816;DHT22;26535;48.788;9.214;2023-02-03T18:08:51;8.40;99.90
40816;DHT22;26535;48.788;9.214;2023-02-03T18:11:18;8.30;99.90
40816;DHT22;26535;48.788;9.214;2023-02-03T18:13:46;8.40;99.90
40816;DHT22;26535;48.788;9.214;2023-02-03T18:16:15;8.50;99.90
40816;DHT22;26535;48.788;9.214;2023-02-03T18:18:42;8.40;99.90
40816;DHT22;26535;48.788;9.214;2023-02-03T18:21:10;8.40;99.90
40816;DHT22;26535;48.788;9.214;2023-02-03T18:23:36;8.40;99.90
40816;DHT22;26535;48.788;9.214;2023-02-03T18:26:03;8.40;99.90
40816;DHT22;26535;48.788;9.214;2023-02-03T18:28:30;8.50;99.90
40816;DHT22;26535;48.788;9.214;2023-02-03T18:31:03;8.50;99.90
40816;DHT22;26535;48.788;9.214;2023-02-03T18:33:30;8.60;99.90
40816;DHT22;26535;48.788;9.214;2023-02-03T18:35:56;8.60;99.90
40816;DHT22;26535;48.788;9.214;2023-02-03T18:38:26;8.60;99.90
40816;DHT22;26535;48.788;9.214;2023-02-03T18:40:52;8.60;99.90
40816;DHT22;26535;48.788;9.214;2023-02-03T18:43:22;8.60;99.90
40816;DHT22;26535;48.788;9.214;2023-02-03T18:45:50;8.60;99.90
40816;DHT22;26535;48.788;9.214;2023-02-03T18:48:16;8.60;99.90
40816;DHT22;26535;48.788;9.214;2023-02-03T18:50:43;8.60;99.90
40816;DHT22;26535;48.788;9.214;2023-02-03T18:53:09;8.60;99.90
40816;DHT22;26535;48.788;9.214;2023-02-03T18:55:42;8.50;99.90
40816;DHT22;26535;48.788;9.214;2023-02-03T18:58:09;8.50;99.90
40816;DHT22;26535;48.788;9.214;2023-02-03T19:00:37;8.50;99.90
40816;DHT22;26535;48.788;9.214;2023-02-03T19:03:03;8.50;99.90
40816;DHT22;26535;48.788;9.214;2023-02-03T19:05:29;8.40;99.90
40816;DHT22;26535;48.788;9.214;2023-02-03T19:07:55;8.40;99.90
40816;DHT22;26535;48.788;9.214;2023-02-03T19:10:20;8.40;99.90
40816;DHT22;26535;48.788;9.214;2023-02-03T19:12:46;8.40;99.90
40816;DHT22;26535;48.788;9.214;2023-02-03T19:15:12;8.40;99.90
40816;DHT22;26535;48.788;9.214;2023-02-03T19:17:38;8.40;99.90
40816;DHT22;26535;48.788;9.214;2023-02-03T19:20:04;8.40;99.90
40816;DHT22;26535;48.788;9.214;2023-02-03T19:22:31;8.40;99.90
40816;DHT22;26535;48.788;9.214;2023-02-03T19:24:57;8.40;99.90
40816;DHT22;26535;48.788;9.214;2023-02-03T19:27:24;8.40;99.90
40816;DHT22;26535;48.788;9.214;2023-02-03T19:29:50;8.40;99.90
40816;DHT22;26535;48.788;9.214;2023-02-03T19:32:16;8.50;99.90
40816;DHT22;26535;48.788;9.214;2023-02-03T19:34:42;8.40;99.90
40816;DHT22;26535;48.788;9.214;2023-02-03T19:37:08;8.40;99.90
40816;DHT22;26535;48.788;9.214;2023-02-03T19:39:34;8.40;99.90
40816;DHT22;26535;48.788;9.214;2023-02-03T19:42:01;8.40;99.90
40816;DHT22;26535;48.788;9.214;2023-02-03T19:44:27;8.40;99.90
40816;DHT22;26535;48.788;9.214;2023-02-03T19:46:53;8.40;99.90
40816;DHT22;26535;48.788;9.214;2023-02-03T19:49:19;8.40;99.90
40816;DHT22;26535;48.788;9.214;2023-02-03T19:51:45;8.50;99.90
40816;DHT22;26535;48.788;9.214;2023-02-03T19:54:15;8.50;99.90
40816;DHT22;26535;48.788;9.214;2023-02-03T19:56:42;8.50;99.90
40816;DHT22;26535;48.788;9.214;2023-02-03T19:59:08;8.50;99.90
40816;DHT22;26535;48.788;9.214;2023-02-03T20:01:35;8.50;99.90
40816;DHT22;26535;48.788;9.214;2023-02-03T20:04:01;8.50;99.90
40816;DHT22;26535;48.788;9.214;2023-02-03T20:06:27;8.40;99.90
40816;DHT22;26535;48.788;9.214;2023-02-03T20:08:54;8.50;99.90
40816;DHT22;26535;48.788;9.214;2023-02-03T20:11:26;8.50;99.90
40816;DHT22;26535;48.788;9.214;2023-02-03T20:13:52;8.50;99.90
40816;DHT22;26535;48.788;9.214;2023-02-03T20:16:18;8.40;99.90
40816;DHT22;26535;48.788;9.214;2023-02-03T20:18:44;8.40;99.90
40816;DHT22;26535;48.788;9.214;2023-02-03T20:21:10;8.50;99.90
40816;DHT22;26535;48.788;9.214;2023-02-03T20:23:38;8.50;99.90
40816;DHT22;26535;48.788;9.214;2023-02-03T20:26:04;8.50;99.90
40816;DHT22;26535;48.788;9.214;2023-02-03T20:28:30;8.50;99.90
40816;DHT22;26535;48.788;9.214;2023-02-03T20:30:57;8.50;99.90
40816;DHT22;26535;48.788;9.214;2023-02-03T20:33:25;8.50;99.90
40816;DHT22;26535;48.788;9.214;2023-02-03T20:35:51;8.50;99.90
40816;DHT22;26535;48.788;9.214;2023-02-03T20:38:17;8.60;99.90
40816;DHT22;26535;48.788;9.214;2023-02-03T20:40:43;8.50;99.90
40816;DHT22;26535;48.788;9.214;2023-02-03T20:43:22;8.60;99.90
40816;DHT22;26535;48.788;9.214;2023-02-03T20:45:48;8.50;99.90
40816;DHT22;26535;48.788;9.214;2023-02-03T20:48:16;8.50;99.90
40816;DHT22;26535;48.788;9.214;2023-02-03T20:50:42;8.50;99.90
40816;DHT22;26535;48.788;9.214;2023-02-03T20:53:14;8.50;99.90
40816;DHT22;26535;48.788;9.214;2023-02-03T20:55:40;8.50;99.90
40816;DHT22;26535;48.788;9.214;2023-02-03T21:00:45;8.50;99.90
40816;DHT22;26535;48.788;9.214;2023-02-03T21:03:13;8.60;99.90
40816;DHT22;26535;48.788;9.214;2023-02-03T21:05:58;8.50;99.90
40816;DHT22;26535;48.788;9.214;2023-02-03T21:08:25;8.60;99.90
40816;DHT22;26535;48.788;9.214;2023-02-03T21:10:51;8.60;99.90
40816;DHT22;26535;48.788;9.214;2023-02-03T21:15:49;8.60;99.90
40816;DHT22;26535;48.788;9.214;2023-02-03T21:18:28;8.60;99.90
40816;DHT22;26535;48.788;9.214;2023-02-03T21:20:57;8.60;99.90
40816;DHT22;26535;48.788;9.214;2023-02-03T21:23:38;8.70;99.90
40816;DHT22;26535;48.788;9.214;2023-02-03T21:26:28;8.60;99.90
40816;DHT22;26535;48.788;9.214;2023-02-03T21:28:59;8.70;99.90
40816;DHT22;26535;48.788;9.214;2023-02-03T21:31:33;8.70;99.90
40816;DHT22;26535;48.788;9.214;2023-02-03T21:34:01;8.80;99.90
40816;DHT22;26535;48.788;9.214;2023-02-03T21:36:34;8.80;99.90
40816;DHT22;26535;48.788;9.214;2023-02-03T21:39:00;8.80;99.90
40816;DHT22;26535;48.788;9.214;2023-02-03T21:41:32;8.80;99.90
40816;DHT22;26535;48.788;9.214;2023-02-03T21:43:58;8.80;99.90
40816;DHT22;26535;48.788;9.214;2023-02-03T21:46:31;8.80;99.90
40816;DHT22;26535;48.788;9.214;2023-02-03T21:49:02;8.80;99.90
40816;DHT22;26535;48.788;9.214;2023-02-03T21:51:33;8.80;99.90
40816;DHT22;26535;48.788;9.214;2023-02-03T21:54:02;8.90;99.90
40816;DHT22;26535;48.788;9.214;2023-02-03T21:56:40;8.90;99.90
40816;DHT22;26535;48.788;9.214;2023-02-03T21:59:15;8.80;99.90
40816;DHT22;26535;48.788;9.214;2023-02-03T22:01:41;8.60;99.90
40816;DHT22;26535;48.788;9.214;2023-02-03T22:04:07;8.60;99.90
40816;DHT22;26535;48.788;9.214;2023-02-03T22:06:51;8.50;99.90
40816;DHT22;26535;48.788;9.214;2023-02-03T22:09:25;8.50;99.90
40816;DHT22;26535;48.788;9.214;2023-02-03T22:11:54;8.50;99.90
40816;DHT22;26535;48.788;9.214;2023-02-03T22:14:20;8.50;99.90
40816;DHT22;26535;48.788;9.214;2023-02-03T22:16:46;8.50;99.90
40816;DHT22;26535;48.788;9.214;2023-02-03T22:19:12;8.50;99.90
40816;DHT22;26535;48.788;9.214;2023-02-03T22:21:38;8.50;99.90
40816;DHT22;26535;48.788;9.214;2023-02-03T22:24:04;8.60;99.90
40816;DHT22;26535;48.788;9.214;2023-02-03T22:26:30;8.60;99.90
40816;DHT22;26535;48.788;9.214;2023-02-03T22:28:55;8.50;99.90
40816;DHT22;26535;48.788;9.214;2023-02-03T22:31:21;8.50;99.90
40816;DHT22;26535;48.788;9.214;2023-02-03T22:33:47;8.50;99.90
40816;DHT22;26535;48.788;9.214;2023-02-03T22:36:13;8.50;99.90
40816;DHT22;26535;48.788;9.214;2023-02-03T22:38:41;8.60;99.90
40816;DHT22;26535;48.788;9.214;2023-02-03T22:41:08;8.60;99.90
40816;DHT22;26535;48.788;9.214;2023-02-03T22:43:36;8.70;99.90
40816;DHT22;26535;48.788;9.214;2023-02-03T22:46:02;8.70;99.90
40816;DHT22;26535;48.788;9.214;2023-02-03T22:48:30;8.70;99.90
40816;DHT22;26535;48.788;9.214;2023-02-03T22:50:56;8.70;99.90
40816;DHT22;26535;48.788;9.214;2023-02-03T22:53:26;8.60;99.90
40816;DHT22;26535;48.788;9.214;2023-02-03T22:55:52;8.70;99.90
40816;DHT22;26535;48.788;9.214;2023-02-03T22:58:17;8.80;99.90
40816;DHT22;26535;48.788;9.214;2023-02-03T23:00:43;8.80;99.90
40816;DHT22;26535;48.788;9.214;2023-02-03T23:03:09;8.70;99.90
40816;DHT22;26535;48.788;9.214;2023-02-03T23:05:34;8.80;99.90
40816;DHT22;26535;48.788;9.214;2023-02-03T23:08:00;8.90;99.90
40816;DHT22;26535;48.788;9.214;2023-02-03T23:10:27;8.80;99.90
40816;DHT22;26535;48.788;9.214;2023-02-03T23:12:57;8.80;99.90
40816;DHT22;26535;48.788;9.214;2023-02-03T23:15:23;8.80;99.90
40816;DHT22;26535;48.788;9.214;2023-02-03T23:17:49;8.80;99.90
40816;DHT22;26535;48.788;9.214;2023-02-03T23:20:16;8.80;99.90
40816;DHT22;26535;48.788;9.214;2023-02-03T23:22:42;8.80;99.90
40816;DHT22;26535;48.788;9.214;2023-02-03T23:25:09;8.80;99.90
40816;DHT22;26535;48.788;9.214;2023-02-03T23:27:35;8.70;99.90
40816;DHT22;26535;48.788;9.214;2023-02-03T23:30:01;8.70;99.90
40816;DHT22;26535;48.788;9.214;2023-02-03T23:32:26;8.70;99.90
40816;DHT22;26535;48.788;9.214;2023-02-03T23:34:52;8.60;99.90
40816;DHT22;26535;48.788;9.214;2023-02-03T23:37:36;8.60;99.90
40816;DHT22;26535;48.788;9.214;2023-02-03T23:40:03;8.60;99.90
40816;DHT22;26535;48.788;9.214;2023-02-03T23:42:29;8.60;99.90
40816;DHT22;26535;48.788;9.214;2023-02-03T23:44:55;8.60;99.90
40816;DHT22;26535;48.788;9.214;2023-02-03T23:47:21;8.60;99.90
40816;DHT22;26535;48.788;9.214;2023-02-03T23:49:47;8.60;99.90
40816;DHT22;26535;48.788;9.214;2023-02-03T23:52:13;8.60;99.90
40816;DHT22;26535;48.788;9.214;2023-02-03T23:54:38;8.60;99.90
40816;DHT22;26535;48.788;9.214;2023-02-03T23:57:04;8.50;99.90
40816;DHT22;26535;48.788;9.214;2023-02-03T23:59:30;8.50;99.90
